Terminal Aerodrome Forecast
Issued by NWS

Home | Current Version | Previous Version | Text Only | Print | Product List | Glossary On
Versions: 1 2 3 4 5 6 7 8 9 10 11 12
833
FTUS45 KFGZ 312325
TAFPRC
TAF
KPRC 312325Z 0100/0124 26010KT P6SM SCT120
     FM010200 27005KT P6SM FEW120=

USA.gov is the U.S. government's official web portal to all federal, state and local government web resources and services.